createdAt,value
2023-05-25T00:00:13.770Z,2.90
2023-05-25T00:05:15.082Z,3.13
2023-05-25T00:10:16.386Z,2.90
2023-05-25T00:15:17.743Z,3.03
2023-05-25T00:20:19.517Z,3.33
2023-05-25T00:25:21.078Z,2.97
2023-05-25T00:30:22.493Z,2.78
2023-05-25T00:35:23.862Z,3.13
2023-05-25T00:40:25.316Z,3.10
2023-05-25T00:45:26.595Z,2.75
2023-05-25T00:50:39.135Z,3.00
2023-05-25T00:55:49.794Z,2.70
2023-05-25T01:00:53.393Z,3.00
2023-05-25T01:05:55.190Z,2.83
2023-05-25T01:10:57.142Z,2.92
2023-05-25T01:15:58.651Z,2.77
2023-05-25T01:21:13.116Z,3.40
2023-05-25T01:26:16.708Z,3.10
2023-05-25T01:31:19.744Z,3.20
2023-05-25T01:36:21.196Z,3.65
2023-05-25T01:41:22.616Z,2.90
2023-05-25T01:46:33.251Z,3.33
2023-05-25T01:51:55.625Z,2.77
2023-05-25T01:56:58.828Z,3.38
2023-05-25T02:02:00.862Z,3.58
2023-05-25T02:07:05.807Z,3.27
2023-05-25T02:12:07.372Z,3.03
2023-05-25T02:17:08.765Z,3.10
2023-05-25T02:22:10.112Z,3.20
2023-05-25T02:27:12.788Z,3.10
2023-05-25T02:32:14.174Z,3.20
2023-05-25T02:37:15.634Z,2.90
2023-05-25T02:42:16.975Z,3.23
2023-05-25T02:47:18.637Z,3.25
2023-05-25T02:52:19.969Z,2.75
2023-05-25T02:57:21.462Z,3.47
2023-05-25T03:02:25.651Z,3.13
2023-05-25T03:07:27.275Z,3.40
2023-05-25T03:12:28.630Z,3.15
2023-05-25T03:17:30.040Z,3.05
2023-05-25T03:22:31.399Z,3.10
2023-05-25T03:27:32.702Z,3.45
2023-05-25T03:32:34.145Z,3.03
2023-05-25T03:37:35.507Z,3.20
2023-05-25T03:42:37.900Z,2.42
2023-05-25T03:47:39.519Z,3.20
2023-05-25T03:52:40.967Z,3.03
2023-05-25T03:57:42.527Z,2.73
2023-05-25T04:02:44.099Z,2.88
2023-05-25T04:07:46.056Z,3.15
2023-05-25T04:12:47.621Z,3.30
2023-05-25T04:17:48.975Z,3.00
2023-05-25T04:22:50.372Z,3.30
2023-05-25T04:27:53.403Z,2.78
2023-05-25T04:32:55.023Z,3.03
2023-05-25T04:37:56.742Z,2.90
2023-05-25T04:42:58.090Z,3.38
2023-05-25T04:48:01.464Z,4.43
2023-05-25T04:53:02.941Z,3.50
2023-05-25T04:58:05.738Z,3.85
2023-05-25T05:03:07.266Z,3.50
2023-05-25T05:08:08.694Z,6.05
2023-05-25T05:13:11.245Z,3.70
2023-05-25T05:18:14.012Z,3.28
2023-05-25T05:23:15.536Z,3.88
2023-05-25T05:28:16.919Z,4.20
2023-05-25T05:33:18.365Z,3.65
2023-05-25T05:38:19.817Z,3.28
2023-05-25T05:43:21.117Z,3.47
2023-05-25T05:48:22.461Z,3.10
2023-05-25T05:53:23.751Z,3.33
2023-05-25T05:58:28.423Z,2.87
2023-05-25T06:03:29.823Z,3.45
2023-05-25T06:08:31.167Z,3.90
2023-05-25T06:13:32.558Z,2.88
2023-05-25T06:18:33.922Z,3.50
2023-05-25T06:23:35.501Z,4.07
2023-05-25T06:28:36.858Z,3.60
2023-05-25T06:33:38.231Z,3.05
2023-05-25T06:38:39.533Z,3.37
2023-05-25T06:43:42.361Z,3.30
2023-05-25T06:48:43.921Z,3.40
2023-05-25T06:53:45.357Z,3.83
2023-05-25T06:58:46.743Z,3.23
2023-05-25T07:03:48.146Z,3.35
2023-05-25T07:08:49.516Z,4.00
2023-05-25T07:13:51.037Z,3.30
2023-05-25T07:18:53.409Z,3.60
2023-05-25T07:23:54.818Z,3.42
2023-05-25T07:28:56.224Z,3.87
2023-05-25T07:33:57.575Z,3.40
2023-05-25T07:38:58.930Z,3.55
2023-05-25T07:44:00.257Z,4.03
2023-05-25T07:49:03.450Z,3.93
2023-05-25T07:54:04.825Z,4.13
2023-05-25T07:59:06.434Z,3.72
2023-05-25T08:04:07.913Z,4.20
2023-05-25T08:09:09.441Z,4.13
2023-05-25T08:14:10.801Z,4.22
2023-05-25T08:19:12.141Z,4.10
2023-05-25T08:24:13.467Z,4.20
2023-05-25T08:29:14.982Z,4.95
2023-05-25T08:34:19.357Z,4.30
2023-05-25T08:39:20.692Z,4.20
2023-05-25T08:44:22.197Z,4.45
2023-05-25T08:49:23.579Z,4.30
2023-05-25T08:54:27.826Z,4.53
2023-05-25T08:59:51.626Z,4.60
2023-05-25T09:04:52.985Z,4.90
2023-05-25T09:09:55.163Z,4.47
2023-05-25T09:14:57.484Z,4.85
2023-05-25T09:19:59.238Z,4.72
2023-05-25T09:25:00.692Z,5.60
2023-05-25T09:30:02.305Z,4.23
2023-05-25T09:35:07.077Z,4.55
2023-05-25T09:40:11.995Z,4.40
2023-05-25T09:45:13.384Z,4.00
2023-05-25T09:50:14.890Z,4.15
2023-05-25T09:55:16.309Z,3.85
2023-05-25T10:00:18.241Z,4.50
2023-05-25T10:05:19.879Z,4.35
2023-05-25T10:10:21.785Z,4.40
2023-05-25T10:15:23.121Z,4.30
2023-05-25T10:20:26.634Z,3.57
2023-05-25T10:25:39.681Z,4.38
2023-05-25T10:30:41.692Z,4.65
2023-05-25T10:36:01.314Z,3.87
2023-05-25T10:41:05.920Z,4.32
2023-05-25T10:46:07.777Z,4.80
2023-05-25T10:51:11.826Z,3.97
2023-05-25T10:56:14.286Z,4.60
2023-05-25T11:01:16.103Z,3.80
2023-05-25T11:06:18.599Z,3.83
2023-05-25T11:11:20.077Z,4.07
2023-05-25T11:16:23.662Z,4.18
2023-05-25T11:21:27.919Z,3.80
2023-05-25T11:26:29.959Z,4.10
2023-05-25T11:31:37.511Z,4.20
2023-05-25T11:36:42.065Z,3.88
2023-05-25T11:41:48.122Z,4.00
2023-05-25T11:46:50.465Z,4.35
2023-05-25T11:51:51.925Z,4.45
2023-05-25T11:56:56.549Z,4.07
2023-05-25T12:01:58.986Z,4.80
2023-05-25T12:07:03.573Z,4.15
2023-05-25T12:12:05.326Z,3.97
2023-05-25T12:17:06.702Z,4.00
2023-05-25T12:22:08.353Z,3.95
2023-05-25T12:27:19.407Z,4.20
2023-05-25T12:32:20.903Z,3.93
2023-05-25T12:37:22.483Z,4.35
2023-05-25T12:42:26.526Z,4.05
2023-05-25T12:47:30.118Z,3.07
2023-05-25T12:52:41.435Z,4.30
2023-05-25T12:57:42.774Z,3.90
2023-05-25T13:02:45.271Z,3.90
2023-05-25T13:07:47.626Z,3.77
2023-05-25T13:12:49.541Z,4.43
2023-05-25T13:17:51.534Z,3.40
2023-05-25T13:22:53.552Z,3.90
2023-05-25T13:27:55.932Z,3.50
2023-05-25T13:32:57.293Z,4.05
2023-05-25T13:37:58.769Z,3.77
2023-05-25T13:43:00.135Z,4.13
2023-05-25T13:48:01.570Z,3.67
2023-05-25T13:53:03.039Z,3.90
2023-05-25T13:58:04.516Z,3.80
2023-05-25T14:03:06.862Z,3.38
2023-05-25T14:08:08.351Z,3.95
2023-05-25T14:13:09.740Z,3.70
2023-05-25T14:18:11.138Z,3.58
2023-05-25T14:23:15.056Z,3.47
2023-05-25T14:28:17.307Z,3.70
2023-05-25T14:33:18.803Z,3.60
2023-05-25T14:38:20.207Z,4.18
2023-05-25T14:43:21.549Z,3.78
2023-05-25T14:48:25.323Z,4.00
2023-05-25T14:53:27.170Z,3.90
2023-05-25T14:58:28.912Z,3.70
2023-05-25T15:03:30.364Z,3.90
2023-05-25T15:08:31.772Z,3.30
2023-05-25T15:13:33.165Z,3.70
2023-05-25T15:18:34.494Z,3.93
2023-05-25T15:23:36.610Z,3.57
2023-05-25T15:28:38.025Z,3.60
2023-05-25T15:33:52.077Z,3.95
2023-05-25T15:38:57.978Z,3.30
2023-05-25T15:44:01.277Z,3.45
2023-05-25T15:49:02.802Z,3.15
2023-05-25T15:54:04.186Z,3.87
2023-05-25T15:59:05.767Z,3.67
2023-05-25T16:04:07.335Z,3.38
2023-05-25T16:09:08.800Z,3.40
2023-05-25T16:14:10.285Z,3.60
2023-05-25T16:19:13.892Z,3.83
2023-05-25T16:24:15.784Z,3.30
2023-05-25T16:29:17.226Z,3.33
2023-05-25T16:34:18.589Z,3.50
2023-05-25T16:39:19.951Z,2.95
2023-05-25T16:44:21.252Z,3.40
2023-05-25T16:49:22.692Z,3.30
2023-05-25T16:54:24.020Z,3.40
2023-05-25T16:59:25.416Z,3.23
2023-05-25T17:04:26.739Z,3.50
2023-05-25T17:09:28.060Z,3.10
2023-05-25T17:14:29.492Z,3.10
2023-05-25T17:19:31.106Z,3.37
2023-05-25T17:24:32.887Z,3.47
2023-05-25T17:29:34.232Z,3.30
2023-05-25T17:34:35.542Z,3.07
2023-05-25T17:39:36.893Z,3.15
2023-05-25T17:44:41.349Z,2.83
2023-05-25T17:49:42.724Z,3.03
2023-05-25T17:54:44.060Z,3.30
2023-05-25T17:59:45.921Z,3.47
2023-05-25T18:04:47.383Z,2.83
2023-05-25T18:09:48.796Z,3.03
2023-05-25T18:14:50.277Z,2.88
2023-05-25T18:19:51.734Z,3.15
2023-05-25T18:24:53.113Z,2.90
2023-05-25T18:29:54.468Z,3.63
2023-05-25T18:34:57.159Z,3.45
2023-05-25T18:39:58.790Z,3.10
2023-05-25T18:45:00.459Z,3.77
2023-05-25T18:50:02.385Z,3.35
2023-05-25T18:55:04.151Z,3.97
2023-05-25T19:00:07.400Z,3.03
2023-05-25T19:05:11.329Z,3.60
2023-05-25T19:10:12.661Z,3.55
2023-05-25T19:15:14.102Z,3.60
2023-05-25T19:20:15.872Z,6.03
2023-05-25T19:25:17.242Z,3.45
2023-05-25T19:30:18.682Z,3.50
2023-05-25T19:35:20.122Z,3.97
2023-05-25T19:40:21.570Z,3.58
2023-05-25T19:45:22.949Z,3.70
2023-05-25T19:50:27.975Z,3.50
2023-05-25T19:55:29.435Z,3.53
2023-05-25T20:00:30.802Z,3.70
2023-05-25T20:05:32.194Z,3.50
2023-05-25T20:10:38.776Z,4.10
2023-05-25T20:15:40.223Z,5.18
2023-05-25T20:20:41.731Z,4.40
2023-05-25T20:25:43.366Z,5.88
2023-05-25T20:30:44.917Z,5.20
2023-05-25T20:35:46.577Z,4.73
2023-05-25T20:40:48.137Z,4.82
2023-05-25T20:45:49.606Z,3.78
2023-05-25T20:50:51.146Z,3.33
2023-05-25T20:55:52.506Z,3.67
2023-05-25T21:00:53.834Z,3.72
2023-05-25T21:05:55.225Z,4.00
2023-05-25T21:10:56.988Z,3.77
2023-05-25T21:15:58.377Z,3.83
2023-05-25T21:20:59.733Z,4.18
2023-05-25T21:26:01.041Z,4.23
2023-05-25T21:31:02.510Z,4.05
2023-05-25T21:36:03.929Z,5.68
2023-05-25T21:41:05.721Z,4.57
2023-05-25T21:46:07.057Z,4.30
2023-05-25T21:51:08.480Z,4.53
2023-05-25T21:56:10.256Z,4.67
2023-05-25T22:01:11.980Z,4.40
2023-05-25T22:06:13.423Z,4.57
2023-05-25T22:11:14.989Z,4.23
2023-05-25T22:16:16.600Z,4.10
2023-05-25T22:21:17.974Z,4.40
2023-05-25T22:26:19.377Z,4.60
2023-05-25T22:31:23.428Z,4.75
2023-05-25T22:36:24.778Z,4.30
2023-05-25T22:41:26.498Z,4.30
2023-05-25T22:46:27.831Z,4.95
2023-05-25T22:51:29.171Z,4.80
2023-05-25T22:56:30.561Z,5.13
2023-05-25T23:01:32.118Z,4.15
2023-05-25T23:06:33.589Z,4.13
2023-05-25T23:11:34.972Z,4.07
2023-05-25T23:16:36.456Z,4.47
2023-05-25T23:21:37.985Z,4.20
2023-05-25T23:26:39.322Z,4.25
2023-05-25T23:31:40.880Z,4.15
2023-05-25T23:36:42.781Z,4.80
2023-05-25T23:41:44.117Z,4.35
2023-05-25T23:46:45.415Z,4.83
2023-05-25T23:51:46.757Z,4.85
2023-05-25T23:56:48.075Z,4.60
